createdAt,value
2018-10-01T00:00:52.743Z,0.00
2018-10-01T00:01:52.714Z,0.00
2018-10-01T00:02:52.691Z,0.00
2018-10-01T00:03:52.662Z,0.00
2018-10-01T00:04:52.636Z,0.00
2018-10-01T00:05:52.603Z,0.00
2018-10-01T00:06:52.580Z,0.00
2018-10-01T00:07:52.552Z,0.00
2018-10-01T00:08:52.531Z,0.00
2018-10-01T00:09:52.507Z,0.00
2018-10-01T00:10:52.474Z,0.00
2018-10-01T00:11:52.449Z,0.00
2018-10-01T00:12:52.423Z,0.00
2018-10-01T00:13:52.395Z,0.00
2018-10-01T00:14:52.373Z,0.00
2018-10-01T00:15:52.343Z,0.00
2018-10-01T00:16:52.329Z,0.00
2018-10-01T00:17:52.287Z,0.00
2018-10-01T00:18:52.263Z,0.00
2018-10-01T00:19:52.237Z,0.00
2018-10-01T00:20:52.206Z,0.00
2018-10-01T00:21:52.188Z,0.00
2018-10-01T00:22:52.154Z,0.00
2018-10-01T00:23:52.127Z,0.00
2018-10-01T00:24:52.110Z,0.00
2018-10-01T00:25:52.072Z,0.00
2018-10-01T00:26:52.056Z,0.00
2018-10-01T00:27:52.026Z,0.00
2018-10-01T00:28:51.996Z,0.00
2018-10-01T00:29:51.973Z,0.00
2018-10-01T00:30:51.940Z,0.00
2018-10-01T00:31:51.916Z,0.00
2018-10-01T00:32:51.892Z,0.00
2018-10-01T00:33:51.873Z,0.00
2018-10-01T00:34:51.835Z,0.00
2018-10-01T00:35:51.805Z,0.00
2018-10-01T00:36:51.790Z,0.00
2018-10-01T00:37:51.758Z,0.00
2018-10-01T00:38:51.734Z,0.00
2018-10-01T00:39:51.702Z,0.00
2018-10-01T00:40:51.679Z,0.00
2018-10-01T00:41:51.649Z,0.00
2018-10-01T00:42:51.625Z,0.00
2018-10-01T00:43:51.598Z,0.00
2018-10-01T00:44:51.572Z,0.00
2018-10-01T00:45:51.550Z,0.00
2018-10-01T00:46:51.530Z,0.00
2018-10-01T00:47:51.495Z,0.00
2018-10-01T00:48:51.470Z,0.00
2018-10-01T00:49:51.431Z,0.00
2018-10-01T00:50:51.417Z,0.00
2018-10-01T00:51:51.388Z,0.00
2018-10-01T00:52:51.352Z,0.00
2018-10-01T00:53:51.331Z,0.00
2018-10-01T00:54:51.300Z,0.00
2018-10-01T00:55:51.284Z,0.00
2018-10-01T00:56:51.255Z,0.00
2018-10-01T00:57:51.221Z,0.00
2018-10-01T00:58:51.223Z,0.00
2018-10-01T00:59:51.171Z,0.00
2018-10-01T01:00:51.150Z,0.00
2018-10-01T01:01:51.127Z,0.00
2018-10-01T01:02:51.091Z,0.00
2018-10-01T01:03:51.070Z,0.00
2018-10-01T01:04:51.045Z,0.00
2018-10-01T01:05:51.027Z,0.00
2018-10-01T01:06:50.985Z,0.00
2018-10-01T01:07:50.960Z,0.00
2018-10-01T01:08:50.933Z,0.00
2018-10-01T01:09:50.907Z,0.00
2018-10-01T01:10:50.885Z,0.00
2018-10-01T01:11:50.858Z,0.00
2018-10-01T01:12:50.822Z,0.00
2018-10-01T01:13:50.803Z,0.00
2018-10-01T01:14:50.769Z,0.00
2018-10-01T01:15:50.750Z,0.00
2018-10-01T01:16:50.724Z,0.00
2018-10-01T01:17:50.691Z,0.00
2018-10-01T01:18:50.671Z,0.00
2018-10-01T01:19:50.636Z,0.00
2018-10-01T01:20:50.622Z,0.00
2018-10-01T01:21:50.584Z,0.00
2018-10-01T01:22:50.566Z,0.00
2018-10-01T01:23:50.539Z,0.00
2018-10-01T01:24:50.513Z,0.00
2018-10-01T01:25:50.483Z,0.00
2018-10-01T01:26:50.463Z,0.00
2018-10-01T01:27:50.435Z,0.00
2018-10-01T01:28:50.400Z,0.00
2018-10-01T01:29:50.380Z,0.00
2018-10-01T01:30:50.350Z,0.00
2018-10-01T01:31:50.320Z,0.00
2018-10-01T01:32:50.300Z,0.00
2018-10-01T01:33:50.270Z,0.00
2018-10-01T01:34:50.250Z,0.00
2018-10-01T01:35:50.260Z,0.00
2018-10-01T01:36:50.187Z,0.00
2018-10-01T01:37:50.168Z,0.00
2018-10-01T01:38:50.134Z,0.00
2018-10-01T01:39:50.105Z,0.00
2018-10-01T01:40:50.089Z,0.00
2018-10-01T01:41:50.060Z,0.00
2018-10-01T01:42:50.037Z,0.00
2018-10-01T01:43:50.001Z,0.00
2018-10-01T01:44:49.979Z,0.00
2018-10-01T01:45:49.952Z,0.00
2018-10-01T01:46:49.927Z,0.00
2018-10-01T01:47:49.894Z,0.00
2018-10-01T01:48:49.877Z,0.00
2018-10-01T01:49:49.841Z,0.00
2018-10-01T01:50:49.822Z,0.00
2018-10-01T01:51:49.788Z,0.00
2018-10-01T01:52:49.769Z,0.00
2018-10-01T01:53:49.735Z,0.00
2018-10-01T01:54:49.716Z,0.00
2018-10-01T01:55:49.684Z,0.00
2018-10-01T01:56:49.688Z,0.00
2018-10-01T01:57:49.632Z,0.00
2018-10-01T01:58:49.611Z,0.00
2018-10-01T01:59:49.584Z,0.00
2018-10-01T02:00:49.553Z,0.00
2018-10-01T02:01:49.532Z,0.00
2018-10-01T02:02:49.503Z,0.00
2018-10-01T02:03:49.477Z,0.00
2018-10-01T02:04:49.447Z,0.00
2018-10-01T02:05:49.429Z,0.00
2018-10-01T02:06:49.387Z,0.00
2018-10-01T02:07:49.372Z,0.00
2018-10-01T02:08:49.337Z,0.00
2018-10-01T02:09:49.318Z,0.00
2018-10-01T02:10:49.283Z,0.00
2018-10-01T02:11:49.267Z,0.00
2018-10-01T02:12:49.232Z,0.00
2018-10-01T02:13:49.210Z,0.00
2018-10-01T02:14:49.184Z,0.00
2018-10-01T02:15:49.157Z,0.00
2018-10-01T02:16:49.124Z,0.00
2018-10-01T02:17:49.100Z,0.00
2018-10-01T02:18:49.068Z,0.00
2018-10-01T02:19:49.044Z,0.00
2018-10-01T02:20:49.026Z,0.00
2018-10-01T02:21:48.989Z,0.00
2018-10-01T02:22:48.971Z,0.00
2018-10-01T02:23:48.936Z,0.00
2018-10-01T02:24:48.923Z,0.00
2018-10-01T02:25:48.884Z,0.00
2018-10-01T02:26:48.863Z,0.00
2018-10-01T02:27:48.832Z,0.00
2018-10-01T02:28:48.807Z,0.00
2018-10-01T02:29:48.778Z,0.00
2018-10-01T02:30:48.754Z,0.00
2018-10-01T02:31:48.730Z,0.00
2018-10-01T02:32:48.702Z,0.00
2018-10-01T02:33:48.681Z,0.00
2018-10-01T02:34:48.652Z,0.00
2018-10-01T02:35:48.622Z,0.00
2018-10-01T02:36:48.600Z,0.00
2018-10-01T02:37:48.568Z,0.00
2018-10-01T02:38:48.546Z,0.00
2018-10-01T02:39:48.517Z,0.00
2018-10-01T02:40:48.485Z,0.00
2018-10-01T02:41:48.465Z,0.00
2018-10-01T02:42:48.433Z,0.00
2018-10-01T02:43:48.411Z,0.00
2018-10-01T02:44:48.376Z,0.00
2018-10-01T02:45:48.359Z,0.00
2018-10-01T02:46:48.321Z,0.00
2018-10-01T02:47:48.363Z,0.00
2018-10-01T02:48:48.278Z,0.00
2018-10-01T02:49:48.249Z,0.00
2018-10-01T02:50:48.225Z,0.00
2018-10-01T02:51:48.192Z,0.00
2018-10-01T02:52:48.165Z,0.00
2018-10-01T02:53:48.144Z,0.00
2018-10-01T02:54:48.113Z,0.00
2018-10-01T02:55:48.090Z,0.00
2018-10-01T02:56:48.059Z,0.00
2018-10-01T02:57:48.043Z,0.00
2018-10-01T02:58:48.003Z,0.00
2018-10-01T02:59:47.977Z,0.00
2018-10-01T03:00:47.957Z,0.00
2018-10-01T03:01:47.930Z,0.00
2018-10-01T03:02:47.899Z,0.00
2018-10-01T03:03:47.872Z,0.00
2018-10-01T03:04:47.846Z,0.00
2018-10-01T03:05:47.826Z,0.00
2018-10-01T03:06:47.798Z,0.00
2018-10-01T03:07:47.761Z,0.00
2018-10-01T03:08:47.737Z,0.00
2018-10-01T03:09:47.715Z,0.00
2018-10-01T03:10:47.684Z,0.00
2018-10-01T03:11:47.656Z,0.00
2018-10-01T03:12:47.635Z,0.00
2018-10-01T03:13:47.605Z,0.00
2018-10-01T03:14:47.575Z,0.00
2018-10-01T03:15:47.549Z,0.00
2018-10-01T03:16:47.525Z,0.00
2018-10-01T03:17:47.505Z,0.00
2018-10-01T03:18:47.466Z,0.00
2018-10-01T03:19:47.446Z,0.00
2018-10-01T03:20:47.421Z,0.00
2018-10-01T03:21:47.391Z,0.00
2018-10-01T03:22:47.368Z,0.00
2018-10-01T03:23:47.334Z,0.00
2018-10-01T03:24:47.313Z,0.00
2018-10-01T03:25:47.293Z,0.00
2018-10-01T03:26:47.253Z,0.00
2018-10-01T03:27:47.237Z,0.00
2018-10-01T03:28:47.201Z,0.00
2018-10-01T03:29:47.180Z,0.00
2018-10-01T03:30:47.149Z,0.00
2018-10-01T03:31:47.128Z,0.00
2018-10-01T03:32:47.095Z,0.00
2018-10-01T03:33:47.075Z,0.00
2018-10-01T03:34:47.040Z,0.00
2018-10-01T03:35:47.021Z,0.00
2018-10-01T03:36:46.988Z,0.00
2018-10-01T03:37:46.960Z,0.00
2018-10-01T03:38:46.940Z,0.00
2018-10-01T03:39:46.914Z,0.00
2018-10-01T03:40:46.889Z,0.00
2018-10-01T03:41:46.858Z,0.00
2018-10-01T03:42:46.831Z,0.00
2018-10-01T03:43:46.807Z,0.00
2018-10-01T03:44:46.772Z,0.00
2018-10-01T03:45:46.750Z,0.00
2018-10-01T03:46:46.724Z,0.00
2018-10-01T03:47:46.698Z,0.00
2018-10-01T03:48:46.675Z,0.00
2018-10-01T03:49:46.647Z,0.00
2018-10-01T03:50:46.610Z,0.00
2018-10-01T03:51:46.590Z,0.00
2018-10-01T03:52:46.558Z,0.00
2018-10-01T03:53:46.534Z,0.00
2018-10-01T03:54:46.504Z,0.00
2018-10-01T03:55:46.483Z,0.00
2018-10-01T03:56:46.454Z,0.00
2018-10-01T03:57:46.427Z,0.00
2018-10-01T03:58:46.401Z,0.00
2018-10-01T03:59:46.371Z,0.00
2018-10-01T04:00:46.348Z,0.00
2018-10-01T04:01:46.326Z,0.00
2018-10-01T04:02:46.289Z,0.00
2018-10-01T04:03:46.263Z,0.00
2018-10-01T04:04:46.243Z,0.00
2018-10-01T04:05:46.212Z,0.00
2018-10-01T04:06:46.184Z,0.00
2018-10-01T04:07:46.172Z,0.00
2018-10-01T04:08:46.184Z,0.00
2018-10-01T04:09:46.108Z,0.00
2018-10-01T04:10:46.078Z,0.00
2018-10-01T04:11:46.047Z,0.00
2018-10-01T04:12:46.033Z,0.00
2018-10-01T04:13:46.001Z,0.00
2018-10-01T04:14:45.971Z,0.00
2018-10-01T04:15:45.941Z,0.00
2018-10-01T04:16:45.925Z,0.00
2018-10-01T04:17:45.896Z,0.00
2018-10-01T04:18:45.864Z,0.00
2018-10-01T04:19:45.838Z,0.00
2018-10-01T04:20:45.810Z,0.00
2018-10-01T04:21:45.788Z,0.00
2018-10-01T04:22:45.769Z,0.00
2018-10-01T04:23:45.724Z,0.00
2018-10-01T04:24:45.701Z,0.00
2018-10-01T04:25:45.675Z,0.00
2018-10-01T04:26:45.645Z,0.00
2018-10-01T04:27:45.628Z,0.00
2018-10-01T04:28:45.590Z,0.00
2018-10-01T04:29:45.574Z,0.00
2018-10-01T04:30:45.544Z,0.00
2018-10-01T04:31:45.522Z,0.00
2018-10-01T04:32:45.485Z,0.00
2018-10-01T04:33:45.466Z,0.00
2018-10-01T04:34:45.431Z,0.00
2018-10-01T04:35:45.414Z,0.00
2018-10-01T04:36:45.380Z,0.00
2018-10-01T04:37:45.355Z,0.00
2018-10-01T04:38:45.332Z,0.00
2018-10-01T04:39:45.304Z,0.00
2018-10-01T04:40:45.311Z,0.00
2018-10-01T04:41:45.250Z,0.00
2018-10-01T04:42:45.225Z,0.00
2018-10-01T04:43:45.195Z,0.00
2018-10-01T04:44:45.166Z,0.00
2018-10-01T04:45:45.140Z,0.00
2018-10-01T04:46:45.180Z,0.00
2018-10-01T04:47:45.087Z,0.00
2018-10-01T04:48:45.059Z,0.00
2018-10-01T04:49:45.036Z,0.00
2018-10-01T04:50:45.006Z,0.00
2018-10-01T04:51:44.982Z,0.00
2018-10-01T04:52:44.950Z,0.00
2018-10-01T04:53:44.930Z,0.00
2018-10-01T04:54:44.896Z,0.00
2018-10-01T04:55:44.868Z,0.00
2018-10-01T04:56:44.875Z,0.00
2018-10-01T04:57:44.817Z,0.00
2018-10-01T04:58:44.793Z,0.00
2018-10-01T04:59:44.768Z,0.00
2018-10-01T05:00:44.746Z,0.00
2018-10-01T05:01:44.713Z,0.00
2018-10-01T05:02:44.690Z,0.00
2018-10-01T05:03:44.659Z,0.00
2018-10-01T05:04:44.632Z,0.00
2018-10-01T05:05:44.609Z,0.00
2018-10-01T05:06:44.579Z,0.00
2018-10-01T05:07:44.549Z,0.00
2018-10-01T05:08:44.574Z,0.00
2018-10-01T05:09:44.497Z,0.00
2018-10-01T05:10:44.473Z,0.00
2018-10-01T05:11:44.451Z,4.00
2018-10-01T05:12:44.412Z,0.00
2018-10-01T05:13:44.394Z,4.00
2018-10-01T05:14:44.426Z,4.00
2018-10-01T05:15:44.340Z,4.00
2018-10-01T05:16:44.307Z,8.00
2018-10-01T05:17:44.277Z,8.00
2018-10-01T05:18:44.260Z,8.00
2018-10-01T05:19:44.236Z,12.00
2018-10-01T05:20:44.208Z,12.00
2018-10-01T05:21:44.176Z,12.00
2018-10-01T05:22:44.167Z,16.00
2018-10-01T05:23:44.126Z,16.00
2018-10-01T05:24:44.104Z,20.00
2018-10-01T05:25:44.067Z,28.00
2018-10-01T05:26:44.044Z,28.00
2018-10-01T05:27:44.025Z,32.00
2018-10-01T05:28:43.999Z,40.00
2018-10-01T05:29:43.958Z,44.00
2018-10-01T05:30:43.939Z,44.00
2018-10-01T05:31:43.914Z,48.00
2018-10-01T05:32:43.882Z,48.00
2018-10-01T05:33:43.852Z,52.00
2018-10-01T05:34:43.827Z,56.00
2018-10-01T05:35:43.799Z,56.00
2018-10-01T05:36:43.792Z,60.00
2018-10-01T05:37:43.767Z,68.00
2018-10-01T05:38:43.755Z,68.00
2018-10-01T05:39:43.692Z,76.00
2018-10-01T05:40:43.670Z,76.00
2018-10-01T05:41:43.637Z,76.00
2018-10-01T05:42:43.621Z,80.00
2018-10-01T05:43:43.584Z,84.00
2018-10-01T05:44:43.560Z,88.00
2018-10-01T05:45:43.537Z,92.00
2018-10-01T05:46:43.509Z,92.00
2018-10-01T05:47:43.474Z,100.00
2018-10-01T05:48:43.527Z,108.00
2018-10-01T05:49:43.434Z,116.00
2018-10-01T05:50:43.398Z,128.00
2018-10-01T05:51:43.378Z,136.00
2018-10-01T05:52:43.347Z,148.00
2018-10-01T05:53:43.319Z,152.00
2018-10-01T05:54:43.299Z,152.00
2018-10-01T05:55:43.290Z,164.00
2018-10-01T05:56:43.233Z,168.00
2018-10-01T05:57:43.248Z,172.00
2018-10-01T05:58:43.181Z,180.00
2018-10-01T05:59:43.158Z,184.00
2018-10-01T06:00:43.209Z,192.00
2018-10-01T06:01:43.106Z,200.00
2018-10-01T06:02:43.082Z,208.00
2018-10-01T06:03:43.056Z,220.00
2018-10-01T06:04:43.038Z,228.00
2018-10-01T06:05:43.001Z,228.00
2018-10-01T06:06:42.965Z,236.00
2018-10-01T06:07:42.941Z,248.00
2018-10-01T06:08:42.919Z,256.00
2018-10-01T06:09:42.889Z,272.00
2018-10-01T06:10:42.864Z,284.00
2018-10-01T06:11:42.871Z,284.00
2018-10-01T06:12:42.819Z,284.00
2018-10-01T06:13:42.777Z,288.00
2018-10-01T06:14:42.767Z,296.00
2018-10-01T06:15:42.739Z,312.00
2018-10-01T06:16:42.699Z,316.00
2018-10-01T06:17:42.679Z,324.00
2018-10-01T06:18:42.647Z,336.00
2018-10-01T06:19:42.622Z,348.00
2018-10-01T06:20:42.593Z,380.00
2018-10-01T06:21:42.568Z,392.00
2018-10-01T06:22:42.538Z,416.00
2018-10-01T06:23:42.513Z,448.00
2018-10-01T06:24:42.484Z,488.00
2018-10-01T06:25:42.456Z,492.00
2018-10-01T06:26:42.440Z,512.00
2018-10-01T06:27:42.409Z,516.00
2018-10-01T06:28:42.376Z,516.00
2018-10-01T06:29:42.355Z,508.00
2018-10-01T06:30:42.326Z,512.00
2018-10-01T06:31:42.303Z,496.00
2018-10-01T06:32:42.269Z,480.00
2018-10-01T06:33:42.245Z,484.00
2018-10-01T06:34:42.224Z,500.00
2018-10-01T06:35:42.195Z,512.00
2018-10-01T06:36:42.160Z,516.00
2018-10-01T06:37:42.145Z,528.00
2018-10-01T06:38:42.106Z,544.00
2018-10-01T06:39:42.083Z,560.00
2018-10-01T06:40:42.063Z,544.00
2018-10-01T06:41:42.064Z,536.00
2018-10-01T06:42:42.014Z,544.00
2018-10-01T06:43:41.977Z,556.00
2018-10-01T06:44:41.954Z,556.00
2018-10-01T06:45:41.922Z,572.00
2018-10-01T06:46:41.903Z,584.00
2018-10-01T06:47:41.869Z,596.00
2018-10-01T06:48:41.849Z,600.00
2018-10-01T06:49:41.817Z,612.00
2018-10-01T06:50:41.836Z,616.00
2018-10-01T06:51:41.761Z,616.00
2018-10-01T06:52:41.731Z,624.00
2018-10-01T06:53:41.719Z,624.00
2018-10-01T06:54:41.676Z,632.00
2018-10-01T06:55:41.660Z,640.00
2018-10-01T06:56:41.630Z,652.00
2018-10-01T06:57:41.606Z,664.00
2018-10-01T06:58:41.570Z,668.00
2018-10-01T06:59:41.546Z,668.00
2018-10-01T07:00:41.528Z,668.00
2018-10-01T07:01:41.498Z,660.00
2018-10-01T07:02:41.466Z,664.00
2018-10-01T07:03:41.439Z,652.00
2018-10-01T07:04:41.417Z,672.00
2018-10-01T07:05:41.448Z,708.00
2018-10-01T07:06:41.357Z,708.00
2018-10-01T07:07:41.328Z,732.00
2018-10-01T07:08:41.302Z,772.00
2018-10-01T07:09:41.283Z,828.00
2018-10-01T07:10:41.254Z,824.00
2018-10-01T07:11:41.379Z,820.00
2018-10-01T07:12:41.198Z,852.00
2018-10-01T07:13:41.171Z,984.00
2018-10-01T07:14:41.143Z,1108.00
2018-10-01T07:15:41.121Z,1100.00
2018-10-01T07:16:41.086Z,1156.00
2018-10-01T07:17:41.065Z,1220.00
2018-10-01T07:18:41.031Z,1228.00
2018-10-01T07:19:41.013Z,1080.00
2018-10-01T07:20:40.985Z,932.00
2018-10-01T07:21:40.954Z,872.00
2018-10-01T07:22:41.056Z,792.00
2018-10-01T07:23:40.899Z,760.00
2018-10-01T07:24:40.872Z,772.00
2018-10-01T07:25:40.850Z,812.00
2018-10-01T07:26:40.814Z,820.00
2018-10-01T07:27:40.797Z,812.00
2018-10-01T07:28:40.761Z,828.00
2018-10-01T07:29:40.753Z,820.00
2018-10-01T07:30:40.706Z,820.00
2018-10-01T07:31:40.686Z,804.00
2018-10-01T07:32:40.654Z,784.00
2018-10-01T07:33:40.632Z,784.00
2018-10-01T07:34:40.599Z,804.00
2018-10-01T07:35:40.577Z,820.00
2018-10-01T07:36:40.545Z,852.00
2018-10-01T07:37:40.525Z,908.00
2018-10-01T07:38:40.489Z,968.00
2018-10-01T07:39:40.467Z,1016.00
2018-10-01T07:40:40.442Z,1060.00
2018-10-01T07:41:40.416Z,1112.00
2018-10-01T07:42:40.390Z,1120.00
2018-10-01T07:43:40.360Z,1076.00
2018-10-01T07:44:40.334Z,1052.00
2018-10-01T07:45:40.313Z,1104.00
2018-10-01T07:46:40.282Z,1208.00
2018-10-01T07:47:40.260Z,1356.00
2018-10-01T07:48:40.223Z,1500.00
2018-10-01T07:49:40.217Z,1448.00
2018-10-01T07:50:40.265Z,1248.00
2018-10-01T07:51:40.139Z,1160.00
2018-10-01T07:52:40.122Z,1076.00
2018-10-01T07:53:40.097Z,960.00
2018-10-01T07:54:40.067Z,892.00
2018-10-01T07:55:40.034Z,928.00
2018-10-01T07:56:40.007Z,924.00
2018-10-01T07:57:39.988Z,796.00
2018-10-01T07:58:39.950Z,812.00
2018-10-01T07:59:40.027Z,772.00
2018-10-01T08:00:39.973Z,752.00
2018-10-01T08:01:39.871Z,752.00
2018-10-01T08:02:39.963Z,780.00
2018-10-01T08:03:39.825Z,804.00
2018-10-01T08:04:39.793Z,792.00
2018-10-01T08:05:39.771Z,768.00
2018-10-01T08:06:39.746Z,788.00
2018-10-01T08:07:39.726Z,808.00
2018-10-01T08:08:39.760Z,800.00
2018-10-01T08:09:39.661Z,812.00
2018-10-01T08:10:39.632Z,816.00
2018-10-01T08:11:39.602Z,796.00
2018-10-01T08:12:39.580Z,796.00
2018-10-01T08:13:39.558Z,780.00
2018-10-01T08:14:39.554Z,792.00
2018-10-01T08:15:39.557Z,772.00
2018-10-01T08:16:39.470Z,788.00
2018-10-01T08:17:39.454Z,780.00
2018-10-01T08:18:39.416Z,784.00
2018-10-01T08:19:39.396Z,796.00
2018-10-01T08:20:39.473Z,820.00
2018-10-01T08:21:39.344Z,892.00
2018-10-01T08:22:39.311Z,928.00
2018-10-01T08:23:39.335Z,820.00
2018-10-01T08:24:39.257Z,800.00
2018-10-01T08:25:39.240Z,800.00
2018-10-01T08:26:39.292Z,788.00
2018-10-01T08:27:39.181Z,816.00
2018-10-01T08:28:39.151Z,820.00
2018-10-01T08:29:39.215Z,824.00
2018-10-01T08:30:39.091Z,832.00
2018-10-01T08:31:39.071Z,852.00
2018-10-01T08:32:39.108Z,896.00
2018-10-01T08:33:39.019Z,872.00
2018-10-01T08:34:38.991Z,864.00
2018-10-01T08:35:39.076Z,852.00
2018-10-01T08:36:38.942Z,852.00
2018-10-01T08:37:38.907Z,836.00
2018-10-01T08:38:39.015Z,760.00
2018-10-01T08:39:38.855Z,808.00
2018-10-01T08:40:38.827Z,828.00
2018-10-01T08:41:38.806Z,832.00
2018-10-01T08:42:38.772Z,828.00
2018-10-01T08:43:38.747Z,856.00
2018-10-01T08:44:38.876Z,936.00
2018-10-01T08:45:38.695Z,1036.00
2018-10-01T08:46:38.671Z,1056.00
2018-10-01T08:47:38.669Z,1184.00
2018-10-01T08:48:38.612Z,1220.00
2018-10-01T08:49:38.588Z,1180.00
2018-10-01T08:50:38.598Z,1040.00
2018-10-01T08:51:38.594Z,984.00
2018-10-01T08:52:38.502Z,1060.00
2018-10-01T08:53:38.572Z,1092.00
2018-10-01T08:54:38.449Z,1048.00
2018-10-01T08:55:38.431Z,1156.00
2018-10-01T08:56:38.481Z,1288.00
2018-10-01T08:57:38.366Z,1316.00
2018-10-01T08:58:38.353Z,1504.00
2018-10-01T08:59:38.408Z,1468.00
2018-10-01T09:00:38.288Z,1656.00
2018-10-01T09:01:38.262Z,2396.00
2018-10-01T09:02:38.294Z,1796.00
2018-10-01T09:03:38.220Z,1592.00
2018-10-01T09:04:38.186Z,1684.00
2018-10-01T09:05:38.221Z,2572.00
2018-10-01T09:06:38.135Z,2792.00
2018-10-01T09:07:38.100Z,2356.00
2018-10-01T09:08:38.127Z,2044.00
2018-10-01T09:09:38.051Z,2620.00
2018-10-01T09:10:38.020Z,3388.00
2018-10-01T09:11:38.053Z,3612.00
2018-10-01T09:12:37.967Z,2396.00
2018-10-01T09:13:37.948Z,2412.00
2018-10-01T09:14:37.934Z,2312.00
2018-10-01T09:15:37.895Z,1876.00
2018-10-01T09:16:37.860Z,2020.00
2018-10-01T09:17:37.898Z,2216.00
2018-10-01T09:18:37.807Z,2516.00
2018-10-01T09:19:37.787Z,2696.00
2018-10-01T09:20:37.884Z,1924.00
2018-10-01T09:21:37.768Z,1176.00
2018-10-01T09:22:37.708Z,1200.00
2018-10-01T09:23:37.704Z,1412.00
2018-10-01T09:24:37.645Z,1864.00
2018-10-01T09:25:37.622Z,1520.00
2018-10-01T09:26:37.736Z,1136.00
2018-10-01T09:27:37.569Z,1452.00
2018-10-01T09:28:37.546Z,1432.00
2018-10-01T09:29:37.527Z,1592.00
2018-10-01T09:30:37.492Z,2276.00
2018-10-01T09:31:37.467Z,2044.00
2018-10-01T09:32:37.492Z,1604.00
2018-10-01T09:33:37.415Z,1488.00
2018-10-01T09:34:37.381Z,1636.00
2018-10-01T09:35:37.448Z,1788.00
2018-10-01T09:36:37.322Z,1652.00
2018-10-01T09:37:37.305Z,1676.00
2018-10-01T09:38:37.295Z,2184.00
2018-10-01T09:39:37.244Z,2860.00
2018-10-01T09:40:37.239Z,3092.00
2018-10-01T09:41:37.191Z,3184.00
2018-10-01T09:42:37.188Z,2956.00
2018-10-01T09:43:37.149Z,2972.00
2018-10-01T09:44:37.264Z,2972.00
2018-10-01T09:45:37.092Z,3388.00
2018-10-01T09:46:37.128Z,3304.00
2018-10-01T09:47:37.037Z,3372.00
2018-10-01T09:48:37.011Z,3260.00
2018-10-01T09:49:36.977Z,3412.00
2018-10-01T09:50:37.016Z,3036.00
2018-10-01T09:51:36.926Z,2312.00
2018-10-01T09:52:36.984Z,1636.00
2018-10-01T09:53:36.882Z,1192.00
2018-10-01T09:54:36.844Z,1036.00
2018-10-01T09:55:36.826Z,1280.00
2018-10-01T09:56:36.803Z,1636.00
2018-10-01T09:57:36.769Z,2016.00
2018-10-01T09:58:36.752Z,2068.00
2018-10-01T09:59:36.714Z,2236.00
2018-10-01T10:00:36.685Z,3024.00
2018-10-01T10:01:36.663Z,4160.00
2018-10-01T10:02:36.692Z,4060.00
2018-10-01T10:03:36.611Z,2700.00
2018-10-01T10:04:36.708Z,2420.00
2018-10-01T10:05:36.564Z,2072.00
2018-10-01T10:06:36.528Z,1696.00
2018-10-01T10:07:36.507Z,1408.00
2018-10-01T10:08:36.534Z,1144.00
2018-10-01T10:09:36.449Z,936.00
2018-10-01T10:10:36.486Z,800.00
2018-10-01T10:11:36.490Z,876.00
2018-10-01T10:12:36.366Z,1008.00
2018-10-01T10:13:36.342Z,1216.00
2018-10-01T10:14:36.383Z,1376.00
2018-10-01T10:15:36.296Z,1160.00
2018-10-01T10:16:36.279Z,932.00
2018-10-01T10:17:36.240Z,864.00
2018-10-01T10:18:36.207Z,820.00
2018-10-01T10:19:36.183Z,812.00
2018-10-01T10:20:36.184Z,816.00
2018-10-01T10:21:36.133Z,880.00
2018-10-01T10:22:36.132Z,884.00
2018-10-01T10:23:36.077Z,896.00
2018-10-01T10:24:36.050Z,892.00
2018-10-01T10:25:36.029Z,896.00
2018-10-01T10:26:36.064Z,892.00
2018-10-01T10:27:35.971Z,916.00
2018-10-01T10:28:35.988Z,900.00
2018-10-01T10:29:35.920Z,908.00
2018-10-01T10:30:35.885Z,900.00
2018-10-01T10:31:35.867Z,892.00
2018-10-01T10:32:35.881Z,900.00
2018-10-01T10:33:35.811Z,904.00
2018-10-01T10:34:35.813Z,904.00
2018-10-01T10:35:35.834Z,912.00
2018-10-01T10:36:35.723Z,924.00
2018-10-01T10:37:35.705Z,940.00
2018-10-01T10:38:35.717Z,928.00
2018-10-01T10:39:35.695Z,956.00
2018-10-01T10:40:35.621Z,952.00
2018-10-01T10:41:35.648Z,980.00
2018-10-01T10:42:35.566Z,1012.00
2018-10-01T10:43:35.540Z,1044.00
2018-10-01T10:44:35.541Z,1084.00
2018-10-01T10:45:35.487Z,1128.00
2018-10-01T10:46:35.456Z,1172.00
2018-10-01T10:47:35.435Z,1288.00
2018-10-01T10:48:35.399Z,1700.00
2018-10-01T10:49:35.375Z,2600.00
2018-10-01T10:50:35.416Z,3276.00
2018-10-01T10:51:35.333Z,3868.00
2018-10-01T10:52:35.296Z,3332.00
2018-10-01T10:53:35.270Z,2304.00
2018-10-01T10:54:35.249Z,2184.00
2018-10-01T10:55:35.219Z,2604.00
2018-10-01T10:56:35.244Z,2680.00
2018-10-01T10:57:35.168Z,2128.00
2018-10-01T10:58:35.141Z,2308.00
2018-10-01T10:59:35.114Z,2972.00
2018-10-01T11:00:35.092Z,3376.00
2018-10-01T11:01:35.056Z,2572.00
2018-10-01T11:02:35.097Z,1824.00
2018-10-01T11:03:35.007Z,1612.00
2018-10-01T11:04:34.982Z,1832.00
2018-10-01T11:05:34.960Z,1940.00
2018-10-01T11:06:34.931Z,1804.00
2018-10-01T11:07:34.905Z,2248.00
2018-10-01T11:08:34.931Z,2956.00
2018-10-01T11:09:34.847Z,3296.00
2018-10-01T11:10:34.818Z,2892.00
2018-10-01T11:11:34.785Z,3488.00
2018-10-01T11:12:34.773Z,4232.00
2018-10-01T11:13:34.735Z,3632.00
2018-10-01T11:14:34.831Z,1964.00
2018-10-01T11:15:34.686Z,864.00
2018-10-01T11:16:34.660Z,548.00
2018-10-01T11:17:34.633Z,532.00
2018-10-01T11:18:34.774Z,632.00
2018-10-01T11:19:34.602Z,744.00
2018-10-01T11:20:34.705Z,736.00
2018-10-01T11:21:34.634Z,712.00
2018-10-01T11:22:34.525Z,872.00
2018-10-01T11:23:34.484Z,744.00
2018-10-01T11:24:34.439Z,740.00
2018-10-01T11:25:34.482Z,736.00
2018-10-01T11:26:34.392Z,712.00
2018-10-01T11:27:34.391Z,728.00
2018-10-01T11:28:34.333Z,756.00
2018-10-01T11:29:34.314Z,780.00
2018-10-01T11:30:34.278Z,792.00
2018-10-01T11:31:34.275Z,772.00
2018-10-01T11:32:34.225Z,772.00
2018-10-01T11:33:34.221Z,800.00
2018-10-01T11:34:34.225Z,884.00
2018-10-01T11:35:34.149Z,1092.00
2018-10-01T11:36:34.133Z,1368.00
2018-10-01T11:37:34.096Z,1636.00
2018-10-01T11:38:34.065Z,1760.00
2018-10-01T11:39:34.057Z,1732.00
2018-10-01T11:40:34.043Z,1860.00
2018-10-01T11:41:33.981Z,2192.00
2018-10-01T11:42:33.951Z,2320.00
2018-10-01T11:43:33.928Z,2316.00
2018-10-01T11:44:33.896Z,2428.00
2018-10-01T11:45:33.937Z,2704.00
2018-10-01T11:46:33.849Z,2636.00
2018-10-01T11:47:33.820Z,2676.00
2018-10-01T11:48:33.784Z,2856.00
2018-10-01T11:49:33.760Z,2700.00
2018-10-01T11:50:33.736Z,2676.00
2018-10-01T11:51:33.750Z,2940.00
2018-10-01T11:52:33.689Z,3376.00
2018-10-01T11:53:33.648Z,4128.00
2018-10-01T11:54:33.624Z,4352.00
2018-10-01T11:55:33.599Z,4436.00
2018-10-01T11:56:33.566Z,4356.00
2018-10-01T11:57:33.635Z,4420.00
2018-10-01T11:58:33.521Z,4400.00
2018-10-01T11:59:33.495Z,4408.00
2018-10-01T12:00:33.455Z,4468.00
2018-10-01T12:01:33.439Z,4324.00
2018-10-01T12:02:33.526Z,4336.00
2018-10-01T12:03:33.464Z,4236.00
2018-10-01T12:04:33.351Z,4044.00
2018-10-01T12:05:33.327Z,3616.00
2018-10-01T12:06:33.295Z,3152.00
2018-10-01T12:07:33.275Z,2532.00
2018-10-01T12:08:33.241Z,2192.00
2018-10-01T12:09:33.281Z,1924.00
2018-10-01T12:10:33.232Z,2008.00
2018-10-01T12:11:33.164Z,2852.00
2018-10-01T12:12:33.141Z,2508.00
2018-10-01T12:13:33.113Z,2168.00
2018-10-01T12:14:33.082Z,2144.00
2018-10-01T12:15:33.157Z,1828.00
2018-10-01T12:16:33.033Z,2040.00
2018-10-01T12:17:33.001Z,1744.00
2018-10-01T12:18:32.970Z,1792.00
2018-10-01T12:19:32.947Z,1540.00
2018-10-01T12:20:32.915Z,1648.00
2018-10-01T12:21:32.966Z,1764.00
2018-10-01T12:22:32.861Z,1772.00
2018-10-01T12:23:32.834Z,1972.00
2018-10-01T12:24:32.813Z,2316.00
2018-10-01T12:25:32.778Z,2564.00
2018-10-01T12:26:32.779Z,3228.00
2018-10-01T12:27:32.741Z,3164.00
2018-10-01T12:28:32.697Z,2500.00
2018-10-01T12:29:32.676Z,2184.00
2018-10-01T12:30:32.653Z,2192.00
2018-10-01T12:31:32.622Z,2216.00
2018-10-01T12:32:32.593Z,2176.00
2018-10-01T12:33:32.640Z,1616.00
2018-10-01T12:34:32.541Z,992.00
2018-10-01T12:35:32.518Z,1152.00
2018-10-01T12:36:32.483Z,1400.00
2018-10-01T12:37:32.490Z,1712.00
2018-10-01T12:38:32.436Z,1600.00
2018-10-01T12:39:32.474Z,1064.00
2018-10-01T12:40:32.370Z,828.00
2018-10-01T12:41:32.353Z,852.00
2018-10-01T12:42:32.325Z,888.00